Fri, 27 Jan 2023 05:51:55 UTC | login

Information for RPM brotli-1.0.9-5.el9.s390x.rpm

ID102928
Namebrotli
Version1.0.9
Release5.el9
Epoch
Archs390x
SummaryLossless compression algorithm
DescriptionBrotli is a generic-purpose lossless compression algorithm that compresses data using a combination of a modern variant of the LZ77 algorithm, Huffman coding and 2nd order context modeling, with a compression ratio comparable to the best currently available general-purpose compression methods. It is similar in speed with deflate but offers more dense compression.
Build Time2021-04-15 22:51:18 GMT
Size325.97 KB
e943a0825772618810594f746e8e4e3d
LicenseMIT
Buildrootc9s-build-22260-789
Provides
brotli = 1.0.9-5.el9
brotli(s390-64) = 1.0.9-5.el9
Obsoletes No Obsoletes
Conflicts No Conflicts
Requires
libbrotli(s390-64) = 1.0.9-5.el9
libc.so.6()(64bit)
libc.so.6(GLIBC_2.2)(64bit)
libc.so.6(GLIBC_2.3.4)(64bit)
libc.so.6(GLIBC_2.33)(64bit)
libc.so.6(GLIBC_2.4)(64bit)
libm.so.6()(64bit)
libm.so.6(GLIBC_2.29)(64bit)
rpmlib(CompressedFileNames) <= 3.0.4-1
rpmlib(FileDigests) <= 4.6.0-1
rpmlib(PayloadFilesHavePrefix) <= 4.0-1
rpmlib(PayloadIsZstd) <= 5.4.18-1
rtld(GNU_HASH)
Recommends No Recommends
Suggests No Suggests
Supplements No Supplements
Enhances No Enhances
Files
1 through 4 of 4
Name ascending sort Size
/usr/bin/brotli782.24 KB
/usr/lib/.build-id0.00 B
/usr/lib/.build-id/e40.00 B
/usr/lib/.build-id/e4/56d5f0842fdf93887ee4e14f54d5ec7bab99fd26.00 B
Component of
Page:
1 through 50 of 2283 >>>
Buildroot descending sort Created State
c9s-build-179816-26460 2021-08-17 09:23:33 expired
c9s-build-179572-26133 2021-08-16 14:54:12 expired
c9s-build-179495-26063 2021-08-16 12:08:09 expired
c9s-build-179360-26035 2021-08-16 09:13:03 expired
c9s-build-179341-26035 2021-08-16 09:04:38 expired
c9s-build-179223-25981 2021-08-16 06:35:51 expired
c9s-build-179108-25870 2021-08-13 16:52:23 expired
c9s-build-179103-25842 2021-08-13 16:41:37 expired
c9s-build-179000-25827 2021-08-13 12:27:20 expired
c9s-build-178982-25804 2021-08-13 10:21:28 expired
c9s-build-168226-25554 2021-08-12 11:50:12 expired
c9s-build-168194-25554 2021-08-12 11:15:54 expired
c9s-build-168190-25554 2021-08-12 11:14:50 expired
c9s-build-168182-25554 2021-08-12 11:10:58 expired
c9s-build-168177-25554 2021-08-12 10:59:10 expired
c9s-build-168172-25554 2021-08-12 10:53:31 expired
c9s-build-168160-25540 2021-08-12 10:45:47 expired
c9s-build-167960-25388 2021-08-11 20:33:53 expired
c9s-build-167907-25388 2021-08-11 14:59:33 expired
c9s-build-167896-25374 2021-08-11 14:31:48 expired
c9s-build-167891-25374 2021-08-11 14:28:57 expired
c9s-build-167849-25283 2021-08-11 10:59:48 expired
c9s-build-side-262-stack-gate-167836-25263 2021-08-11 09:36:18 expired
c9s-build-167782-25231 2021-08-11 08:41:33 expired
c9s-build-167522-25147 2021-08-10 14:42:00 expired
c9s-build-167502-25147 2021-08-10 13:14:19 expired
c9s-build-side-264-stack-gate-157397-24760 2021-08-09 19:57:09 expired
c9s-build-side-264-stack-gate-157370-24760 2021-08-09 19:55:52 expired
c9s-build-side-264-stack-gate-157365-24760 2021-08-09 19:55:18 expired
c9s-build-side-264-stack-gate-157340-24760 2021-08-09 19:53:26 expired
c9s-build-side-264-stack-gate-157132-24758 2021-08-09 19:37:13 expired
c9s-build-side-264-stack-gate-157025-24755 2021-08-09 19:32:18 expired
c9s-build-side-264-stack-gate-156988-24753 2021-08-09 19:30:59 expired
c9s-build-side-264-stack-gate-156972-24753 2021-08-09 19:30:38 expired
c9s-build-side-264-stack-gate-156921-24750 2021-08-09 19:29:18 expired
c9s-build-side-264-stack-gate-156859-24748 2021-08-09 19:27:12 expired
c9s-build-side-264-stack-gate-156812-24744 2021-08-09 19:24:36 expired
c9s-build-156686-24668 2021-08-09 17:10:04 expired
c9s-build-156660-24656 2021-08-09 15:01:14 expired
c9s-build-156652-24656 2021-08-09 14:46:33 expired
c9s-build-156632-24644 2021-08-09 14:00:04 expired
c9s-build-156572-24596 2021-08-09 12:57:10 expired
c9s-build-156559-24572 2021-08-09 12:40:29 expired
c9s-build-156555-24572 2021-08-09 12:39:56 expired
c9s-build-156527-24548 2021-08-09 12:19:27 expired
c9s-build-156480-24488 2021-08-09 11:54:20 expired
c9s-build-156444-24476 2021-08-09 11:47:12 expired
c9s-build-156420-24416 2021-08-09 11:26:18 expired
c9s-build-156349-24405 2021-08-09 09:32:25 expired
c9s-build-156343-24391 2021-08-09 08:40:35 expired